Time;durP1;ratioP1;P1;durP2;ratioP2;P2;SDS_P1;SDS_P2;PMS_P1;PMS_P2;Temp;Humidity;BMP_temperature;BMP_pressure;BME280_temperature;BME280_humidity;BME280_pressure;Samples;Min_cycle;Max_cycle;Signal;HPM_P1;HPM_P2
2021/03/22 00:00:42;;;;;;;40.83;12.60;;;2.30;99.90;;;;;;2096278;28;20032;-72
2021/03/22 00:01:43;;;;;;;32.53;14.13;;;2.30;99.90;;;;;;2092322;28;20480;-71
2021/03/22 00:02:44;;;;;;;40.78;13.20;;;2.40;99.90;;;;;;2096263;28;20029;-72
2021/03/22 00:03:44;;;;;;;29.33;12.27;;;2.30;99.90;;;;;;2094417;28;20052;-71
2021/03/22 00:04:45;;;;;;;34.42;12.43;;;2.30;99.90;;;;;;2089886;28;20021;-71
2021/03/22 00:05:46;;;;;;;33.05;10.88;;;2.40;99.90;;;;;;2095200;28;20047;-71
2021/03/22 00:06:46;;;;;;;28.45;11.10;;;2.40;99.90;;;;;;2095652;28;20075;-71
2021/03/22 00:07:49;;;;;;;30.45;10.68;;;2.40;99.90;;;;;;2095607;28;20016;-71
2021/03/22 00:08:54;;;;;;;28.90;10.77;;;2.40;99.90;;;;;;2096287;28;20020;-71
2021/03/22 00:09:55;;;;;;;29.27;11.48;;;2.40;99.90;;;;;;2095560;28;20063;-71
2021/03/22 00:10:56;;;;;;;40.28;12.35;;;2.30;99.90;;;;;;2095334;28;20025;-71
2021/03/22 00:11:56;;;;;;;34.28;13.98;;;2.40;99.90;;;;;;2095176;28;20115;-71
2021/03/22 00:12:57;;;;;;;30.50;11.68;;;2.40;99.90;;;;;;2083716;28;20018;-71
2021/03/22 00:13:58;;;;;;;31.77;11.30;;;2.40;99.90;;;;;;2089956;28;20048;-71
2021/03/22 00:14:59;;;;;;;33.83;11.30;;;2.40;99.90;;;;;;2090687;28;20018;-71
2021/03/22 00:16:05;;;;;;;32.20;12.25;;;2.40;99.90;;;;;;2090612;28;20625;-71
2021/03/22 00:17:07;;;;;;;39.35;14.75;;;2.40;99.90;;;;;;2089279;28;20029;-71
2021/03/22 00:18:11;;;;;;;32.53;13.20;;;2.30;99.90;;;;;;2088234;28;20072;-71
2021/03/22 00:19:12;;;;;;;35.22;11.57;;;2.30;99.90;;;;;;2081912;28;20026;-71
2021/03/22 00:20:14;;;;;;;28.67;10.63;;;2.30;99.90;;;;;;2090034;28;20017;-71
2021/03/22 00:21:15;;;;;;;34.83;10.68;;;2.30;99.90;;;;;;2090302;28;20028;-72
2021/03/22 00:22:15;;;;;;;26.55;10.48;;;2.40;99.90;;;;;;2090821;28;20099;-71
2021/03/22 00:23:16;;;;;;;21.85;9.88;;;2.40;99.90;;;;;;2090111;28;20025;-71
2021/03/22 00:24:17;;;;;;;36.50;11.15;;;2.40;99.90;;;;;;2080855;28;20033;-71
2021/03/22 00:25:18;;;;;;;32.75;11.45;;;2.40;99.90;;;;;;2087031;28;20057;-71
2021/03/22 00:26:19;;;;;;;26.63;10.75;;;2.50;99.90;;;;;;2083856;28;20167;-71
2021/03/22 00:27:20;;;;;;;25.98;10.80;;;2.50;99.90;;;;;;2088672;28;20021;-71
2021/03/22 00:28:22;;;;;;;29.80;11.02;;;2.50;99.90;;;;;;2090499;28;20505;-71
2021/03/22 00:29:23;;;;;;;26.98;11.68;;;2.50;99.90;;;;;;2090833;28;20029;-71
2021/03/22 00:30:33;;;;;;;30.77;11.77;;;2.40;99.90;;;;;;2090608;28;20026;-71
2021/03/22 00:31:33;;;;;;;39.17;15.95;;;2.40;99.90;;;;;;2089712;28;20074;-71
2021/03/22 00:32:34;;;;;;;32.17;14.75;;;2.30;99.90;;;;;;2088757;28;20086;-71
2021/03/22 00:33:35;;;;;;;39.65;16.45;;;2.30;99.90;;;;;;2089648;28;20028;-71
2021/03/22 00:34:36;;;;;;;34.90;15.02;;;2.30;99.90;;;;;;2081618;28;20029;-71
2021/03/22 00:35:37;;;;;;;37.65;13.50;;;2.30;99.90;;;;;;2086802;28;20025;-71
2021/03/22 00:36:38;;;;;;;28.63;10.13;;;2.20;99.90;;;;;;2090313;28;20025;-71
2021/03/22 00:37:39;;;;;;;31.20;11.07;;;2.20;99.90;;;;;;2090411;28;20055;-72
2021/03/22 00:38:40;;;;;;;25.15;10.68;;;2.20;99.90;;;;;;2089338;28;20028;-72
2021/03/22 00:39:40;;;;;;;30.60;11.80;;;2.20;99.90;;;;;;2082203;28;20053;-72
2021/03/22 00:40:43;;;;;;;30.20;10.43;;;2.20;99.90;;;;;;2085251;28;20020;-72
2021/03/22 00:41:44;;;;;;;32.25;9.85;;;2.20;99.90;;;;;;2089725;28;20112;-71
2021/03/22 00:42:45;;;;;;;26.20;9.80;;;2.20;99.90;;;;;;2090099;28;20033;-71
2021/03/22 00:43:45;;;;;;;25.27;9.32;;;2.20;99.90;;;;;;2090580;28;20032;-71
2021/03/22 00:44:46;;;;;;;22.77;10.18;;;2.30;99.90;;;;;;2089698;28;20017;-71
2021/03/22 00:45:47;;;;;;;28.77;10.07;;;2.30;99.90;;;;;;2081615;28;20040;-71
2021/03/22 00:46:47;;;;;;;26.10;9.60;;;2.30;99.90;;;;;;2098358;28;20021;-71
2021/03/22 00:47:50;;;;;;;25.60;9.77;;;2.30;99.90;;;;;;2098091;28;20024;-72
2021/03/22 00:48:50;;;;;;;21.52;9.85;;;2.30;99.90;;;;;;2084391;28;20107;-72
2021/03/22 00:49:51;;;;;;;18.58;8.77;;;2.30;99.90;;;;;;2090458;28;20020;-72
2021/03/22 00:50:52;;;;;;;21.77;9.80;;;2.30;99.90;;;;;;2090466;28;20096;-72
2021/03/22 00:51:53;;;;;;;24.90;9.57;;;2.30;99.90;;;;;;2091342;28;20021;-72
2021/03/22 00:52:54;;;;;;;28.65;10.07;;;2.20;99.90;;;;;;2092471;28;20033;-71
2021/03/22 00:53:55;;;;;;;26.55;10.75;;;2.20;99.90;;;;;;2096550;28;20079;-72
2021/03/22 00:54:55;;;;;;;40.10;14.88;;;2.10;99.90;;;;;;2090739;28;20067;-72
2021/03/22 00:55:56;;;;;;;88.18;36.35;;;2.10;99.90;;;;;;2085777;28;20136;-71
2021/03/22 00:56:57;;;;;;;48.75;18.38;;;2.10;99.90;;;;;;2097674;28;20065;-71
2021/03/22 00:57:57;;;;;;;38.38;17.80;;;2.10;99.90;;;;;;2100754;28;20579;-71
2021/03/22 00:58:58;;;;;;;37.95;16.55;;;2.00;99.90;;;;;;2089065;28;20496;-72
2021/03/22 00:59:59;;;;;;;34.58;14.07;;;2.00;99.90;;;;;;2085383;28;20060;-72
2021/03/22 01:01:00;;;;;;;35.90;13.15;;;1.90;99.90;;;;;;2098703;28;20024;-70
2021/03/22 01:02:03;;;;;;;33.30;14.00;;;1.90;99.90;;;;;;2089166;28;20524;-71
2021/03/22 01:03:09;;;;;;;34.00;12.15;;;1.90;99.90;;;;;;2087946;28;20029;-71
2021/03/22 01:04:10;;;;;;;22.73;10.32;;;1.90;99.90;;;;;;2090417;28;20028;-71
2021/03/22 01:05:11;;;;;;;23.92;10.10;;;1.90;99.90;;;;;;2089848;28;20400;-71
2021/03/22 01:06:12;;;;;;;27.37;10.53;;;1.90;99.90;;;;;;2088911;28;20017;-71
2021/03/22 01:07:13;;;;;;;30.42;9.60;;;1.90;99.90;;;;;;2081971;28;20331;-70
2021/03/22 01:08:14;;;;;;;25.63;9.63;;;2.00;99.90;;;;;;2088849;28;20501;-71
2021/03/22 01:09:15;;;;;;;36.08;10.55;;;2.00;99.90;;;;;;2081291;28;20053;-71
2021/03/22 01:10:31;;;;;;;26.20;9.75;;;2.00;99.90;;;;;;2081349;28;20033;-71
2021/03/22 01:11:32;;;;;;;20.77;9.68;;;2.00;99.90;;;;;;2083037;28;20029;-71
2021/03/22 01:12:33;;;;;;;31.98;10.23;;;2.10;99.90;;;;;;2089367;28;20123;-70
2021/03/22 01:13:40;;;;;;;23.75;9.90;;;2.10;99.90;;;;;;2091509;28;20021;-71
2021/03/22 01:14:41;;;;;;;24.45;9.43;;;2.10;99.90;;;;;;2093594;28;20099;-71
2021/03/22 01:15:42;;;;;;;22.45;10.48;;;2.10;99.90;;;;;;2088548;28;20109;-71
2021/03/22 01:16:42;;;;;;;23.70;9.45;;;2.10;99.90;;;;;;2089582;28;20579;-71
2021/03/22 01:17:43;;;;;;;25.98;9.30;;;2.10;99.90;;;;;;2090286;28;20025;-71
2021/03/22 01:18:49;;;;;;;24.70;9.95;;;2.10;99.90;;;;;;2089331;28;20136;-72
2021/03/22 01:19:50;;;;;;;21.83;9.77;;;2.10;99.90;;;;;;2089637;28;20013;-71
2021/03/22 01:21:18;;;;;;;28.52;10.35;;;2.00;99.90;;;;;;2089594;28;20090;-71
2021/03/22 01:22:19;;;;;;;26.33;11.20;;;2.10;99.90;;;;;;2089443;28;20044;-71
2021/03/22 01:23:20;;;;;;;26.63;12.23;;;2.00;99.90;;;;;;2088920;28;20029;-70
2021/03/22 01:24:22;;;;;;;24.48;10.15;;;2.00;99.90;;;;;;2081751;28;20025;-71
2021/03/22 01:25:23;;;;;;;28.92;10.38;;;2.00;99.90;;;;;;2086226;28;20100;-71
2021/03/22 01:26:31;;;;;;;23.75;9.60;;;2.00;99.90;;;;;;2089066;28;20040;-71
2021/03/22 01:27:31;;;;;;;28.20;9.27;;;2.00;99.90;;;;;;2085309;28;20024;-71
2021/03/22 01:28:33;;;;;;;31.10;10.05;;;1.90;99.90;;;;;;2089796;28;20075;-71
2021/03/22 01:29:36;;;;;;;22.77;9.82;;;1.90;99.90;;;;;;2085343;28;20053;-71
2021/03/22 01:30:41;;;;;;;24.50;9.90;;;1.90;99.90;;;;;;2097043;28;20029;-71
2021/03/22 01:31:43;;;;;;;22.92;9.52;;;1.90;99.90;;;;;;2097329;28;20024;-72
2021/03/22 01:32:45;;;;;;;29.42;10.18;;;1.80;99.90;;;;;;2082163;28;20201;-71
2021/03/22 01:33:50;;;;;;;21.38;10.02;;;1.80;99.90;;;;;;2085034;28;20025;-71
2021/03/22 01:34:50;;;;;;;28.08;10.88;;;1.80;99.90;;;;;;2089735;28;20033;-71
2021/03/22 01:35:52;;;;;;;25.25;9.65;;;1.70;99.90;;;;;;2088746;28;20025;-71
2021/03/22 01:36:54;;;;;;;20.48;9.43;;;1.70;99.90;;;;;;2089698;28;20104;-72
2021/03/22 01:37:55;;;;;;;23.65;9.30;;;1.60;99.90;;;;;;2090035;28;20500;-71
2021/03/22 01:39:00;;;;;;;18.70;9.30;;;1.60;99.90;;;;;;2090154;28;20033;-71
2021/03/22 01:40:00;;;;;;;28.85;10.32;;;1.50;99.90;;;;;;2090107;28;20025;-71
2021/03/22 01:41:29;;;;;;;26.45;9.80;;;1.50;99.90;;;;;;2089093;28;20029;-71
2021/03/22 01:42:49;;;;;;;23.98;9.70;;;1.50;99.90;;;;;;2089607;28;20025;-71
2021/03/22 01:44:08;;;;;;;20.25;8.82;;;1.40;99.90;;;;;;2090067;28;20021;-71
2021/03/22 01:45:10;;;;;;;27.38;9.40;;;1.40;99.90;;;;;;2088510;28;20025;-71
2021/03/22 01:46:11;;;;;;;39.08;10.88;;;1.40;99.90;;;;;;2097319;28;20077;-71
2021/03/22 01:47:19;;;;;;;22.83;9.40;;;1.30;99.90;;;;;;2097506;28;20443;-71
2021/03/22 01:48:20;;;;;;;25.42;8.93;;;1.30;99.90;;;;;;2089188;28;20021;-71
2021/03/22 01:49:23;;;;;;;28.27;10.77;;;1.30;99.90;;;;;;2089271;28;20032;-70
2021/03/22 01:50:29;;;;;;;23.02;9.48;;;1.30;99.90;;;;;;2088229;28;20076;-71
2021/03/22 01:51:30;;;;;;;25.65;8.77;;;1.20;99.90;;;;;;2097937;28;20159;-71
2021/03/22 01:52:33;;;;;;;23.73;9.30;;;1.20;99.90;;;;;;2090336;28;20083;-71
2021/03/22 01:53:35;;;;;;;19.63;9.18;;;1.20;99.90;;;;;;2081158;28;20021;-71
2021/03/22 01:54:36;;;;;;;28.83;9.27;;;1.20;99.90;;;;;;2089153;28;20072;-71
2021/03/22 01:55:36;;;;;;;24.73;9.50;;;1.20;99.90;;;;;;2089169;28;20458;-70
2021/03/22 01:56:45;;;;;;;27.42;9.55;;;1.10;99.90;;;;;;2089584;28;20036;-71
2021/03/22 01:57:47;;;;;;;20.05;8.90;;;1.10;99.90;;;;;;2088896;28;20021;-70
2021/03/22 01:58:48;;;;;;;23.38;9.40;;;1.10;99.90;;;;;;2093134;28;20041;-71
2021/03/22 01:59:50;;;;;;;22.20;8.95;;;1.10;99.90;;;;;;2089425;28;20025;-71
2021/03/22 02:00:51;;;;;;;21.52;9.20;;;1.10;99.90;;;;;;2081138;28;20026;-71
2021/03/22 02:01:56;;;;;;;19.40;9.00;;;1.10;99.90;;;;;;2084323;28;20067;-71
2021/03/22 02:03:12;;;;;;;22.98;9.25;;;1.10;99.90;;;;;;2087302;28;20025;-71
2021/03/22 02:04:13;;;;;;;25.13;9.35;;;1.20;99.90;;;;;;2089043;28;20139;-71
2021/03/22 02:05:17;;;;;;;26.45;9.45;;;1.10;99.90;;;;;;2089164;28;20076;-71
2021/03/22 02:06:18;;;;;;;21.63;9.25;;;1.10;99.90;;;;;;2088338;28;20075;-71
2021/03/22 02:07:19;;;;;;;21.38;8.65;;;1.00;99.90;;;;;;2097139;28;20028;-71
2021/03/22 02:08:28;;;;;;;21.10;8.55;;;1.00;99.90;;;;;;2097279;28;20020;-71
2021/03/22 02:09:29;;;;;;;20.63;9.05;;;0.90;99.90;;;;;;2084800;28;20032;-72
2021/03/22 02:10:30;;;;;;;20.27;9.63;;;0.90;99.90;;;;;;2089421;28;20380;-72
2021/03/22 02:11:33;;;;;;;23.88;8.75;;;0.80;99.90;;;;;;2087949;28;20037;-72
2021/03/22 02:12:34;;;;;;;23.98;8.88;;;0.80;99.90;;;;;;2086655;28;20603;-71
2021/03/22 02:13:36;;;;;;;24.58;9.00;;;0.80;99.90;;;;;;2080796;28;20030;-70
2021/03/22 02:14:37;;;;;;;21.70;8.82;;;0.70;99.90;;;;;;2083693;28;20021;-70
2021/03/22 02:15:42;;;;;;;17.08;8.80;;;0.70;99.90;;;;;;2081156;28;20482;-70
2021/03/22 02:16:43;;;;;;;21.02;9.27;;;0.70;99.90;;;;;;2087871;28;20028;-68
2021/03/22 02:17:46;;;;;;;27.42;9.10;;;0.70;99.90;;;;;;2079900;28;20037;-69
2021/03/22 02:18:56;;;;;;;24.70;9.75;;;0.70;99.90;;;;;;2080205;28;20068;-69
2021/03/22 02:20:36;;;;;;;26.30;9.20;;;0.70;99.90;;;;;;2082417;28;20039;-69
2021/03/22 02:22:24;;;;;;;16.45;8.30;;;0.70;99.90;;;;;;2082489;28;20064;-68
2021/03/22 02:24:01;;;;;;;21.70;8.35;;;0.70;99.90;;;;;;2086206;28;20032;-69
2021/03/22 02:25:12;;;;;;;19.70;7.93;;;0.70;99.90;;;;;;2076671;28;20026;-68
2021/03/22 02:26:37;;;;;;;26.67;9.32;;;0.70;99.90;;;;;;2077800;28;20030;-69
2021/03/22 02:27:53;;;;;;;21.10;8.35;;;0.60;99.90;;;;;;2082889;28;20064;-68
2021/03/22 02:29:24;;;;;;;22.63;9.07;;;0.60;99.90;;;;;;2083936;28;20039;-68
2021/03/22 02:31:02;;;;;;;17.77;8.00;;;0.50;99.90;;;;;;2086351;28;20546;-68
2021/03/22 02:32:23;;;;;;;17.90;7.88;;;0.50;99.90;;;;;;2080917;28;20394;-68
2021/03/22 02:33:45;;;;;;;20.92;7.70;;;0.50;99.90;;;;;;2079991;28;20518;-68
2021/03/22 02:34:53;;;;;;;26.50;9.30;;;0.60;99.90;;;;;;2080733;28;20021;-68
2021/03/22 02:36:01;;;;;;;18.70;8.52;;;0.60;99.90;;;;;;2084358;28;20017;-67
2021/03/22 02:37:27;;;;;;;31.30;9.38;;;0.60;99.90;;;;;;2087493;28;20090;-68
2021/03/22 02:38:33;;;;;;;23.23;8.65;;;0.60;99.90;;;;;;2084990;28;20021;-68
2021/03/22 02:39:57;;;;;;;19.23;8.95;;;0.60;99.90;;;;;;2082107;28;20048;-67
2021/03/22 02:41:07;;;;;;;20.77;8.15;;;0.60;99.90;;;;;;2071123;28;20135;-67
2021/03/22 02:42:11;;;;;;;29.58;8.70;;;0.70;99.90;;;;;;2082455;28;20040;-67
2021/03/22 02:43:12;;;;;;;25.80;8.05;;;0.60;99.90;;;;;;2088313;28;20038;-67
2021/03/22 02:44:29;;;;;;;24.10;7.88;;;0.60;99.90;;;;;;2088766;28;20520;-68
2021/03/22 02:45:38;;;;;;;29.63;8.88;;;0.60;99.90;;;;;;2087927;28;20059;-67
2021/03/22 02:46:40;;;;;;;22.70;7.85;;;0.60;99.90;;;;;;2080752;28;20051;-67
2021/03/22 02:47:40;;;;;;;19.92;8.07;;;0.50;99.90;;;;;;2079854;28;20021;-67
2021/03/22 02:48:41;;;;;;;24.17;8.35;;;0.50;99.90;;;;;;2081869;28;20679;-67
2021/03/22 02:49:42;;;;;;;18.85;8.23;;;0.50;99.90;;;;;;2088185;28;20108;-68
2021/03/22 02:50:44;;;;;;;25.73;8.73;;;0.50;99.90;;;;;;2079753;28;20579;-67
2021/03/22 02:52:06;;;;;;;24.90;8.23;;;0.50;99.90;;;;;;2088562;28;20037;-67
2021/03/22 02:53:31;;;;;;;20.02;8.10;;;0.50;99.90;;;;;;2087986;28;20029;-67
2021/03/22 02:54:52;;;;;;;22.15;7.88;;;0.50;99.90;;;;;;2087592;28;20424;-67
2021/03/22 02:56:10;;;;;;;24.08;7.97;;;0.50;99.90;;;;;;2078705;28;20516;-67
2021/03/22 02:57:17;;;;;;;18.02;7.22;;;0.50;99.90;;;;;;2074922;28;20026;-67
2021/03/22 02:58:22;;;;;;;23.77;7.82;;;0.50;99.90;;;;;;2088363;28;20041;-67
2021/03/22 02:59:29;;;;;;;17.10;7.05;;;0.50;99.90;;;;;;2088097;28;20033;-67
2021/03/22 03:00:38;;;;;;;19.13;7.57;;;0.50;99.90;;;;;;2088368;28;20444;-67
2021/03/22 03:01:44;;;;;;;24.10;7.68;;;0.50;99.90;;;;;;2088597;28;20120;-67
2021/03/22 03:02:47;;;;;;;19.25;7.75;;;0.50;99.90;;;;;;2086468;28;20420;-67
2021/03/22 03:03:51;;;;;;;22.13;7.72;;;0.40;99.90;;;;;;2078972;28;20022;-67
2021/03/22 03:04:53;;;;;;;22.25;7.95;;;0.40;99.90;;;;;;2084018;28;20025;-67
2021/03/22 03:05:54;;;;;;;18.42;7.60;;;0.40;99.90;;;;;;2083234;28;20021;-66
2021/03/22 03:07:03;;;;;;;24.33;7.30;;;0.40;99.90;;;;;;2082022;28;20470;-67
2021/03/22 03:08:09;;;;;;;21.38;8.13;;;0.50;99.90;;;;;;2082041;28;20271;-67
2021/03/22 03:09:10;;;;;;;17.98;7.43;;;0.50;99.90;;;;;;2082770;28;20022;-66
2021/03/22 03:10:14;;;;;;;23.35;7.70;;;0.40;99.90;;;;;;2080094;28;20393;-67
2021/03/22 03:11:15;;;;;;;16.67;7.90;;;0.40;99.90;;;;;;2084739;28;20108;-67
2021/03/22 03:12:19;;;;;;;17.65;7.90;;;0.40;99.90;;;;;;2087738;28;20609;-67
2021/03/22 03:13:20;;;;;;;37.70;8.82;;;0.40;99.90;;;;;;2087580;28;20060;-67
2021/03/22 03:14:21;;;;;;;24.95;7.63;;;0.40;99.90;;;;;;2087657;28;20025;-67
2021/03/22 03:15:22;;;;;;;21.13;7.57;;;0.40;99.90;;;;;;2084891;28;20030;-67
2021/03/22 03:16:24;;;;;;;23.30;7.80;;;0.40;99.90;;;;;;2085253;28;20017;-67
2021/03/22 03:17:25;;;;;;;19.77;7.30;;;0.30;99.90;;;;;;2080224;28;20029;-67
2021/03/22 03:18:26;;;;;;;19.10;7.10;;;0.30;99.90;;;;;;2080778;28;20547;-67
2021/03/22 03:19:26;;;;;;;22.40;6.85;;;0.30;99.90;;;;;;2082394;28;20559;-67
2021/03/22 03:20:30;;;;;;;24.98;7.38;;;0.30;99.90;;;;;;2082051;28;20022;-67
2021/03/22 03:21:31;;;;;;;19.33;7.00;;;0.30;99.90;;;;;;2081594;28;20049;-67
2021/03/22 03:22:32;;;;;;;21.88;7.18;;;0.30;99.90;;;;;;2081270;28;20025;-67
2021/03/22 03:23:32;;;;;;;16.55;7.13;;;0.30;99.90;;;;;;2084064;28;20096;-67
2021/03/22 03:24:35;;;;;;;24.80;6.85;;;0.20;99.90;;;;;;2087679;28;20509;-67
2021/03/22 03:25:35;;;;;;;23.48;7.47;;;0.20;99.90;;;;;;2087354;28;20052;-67
2021/03/22 03:26:37;;;;;;;13.63;5.95;;;0.30;99.90;;;;;;2086572;28;20405;-67
2021/03/22 03:27:38;;;;;;;27.58;7.68;;;0.20;99.90;;;;;;2085112;28;20049;-67
2021/03/22 03:28:38;;;;;;;19.88;6.88;;;0.20;99.90;;;;;;2084460;28;20028;-67
2021/03/22 03:29:41;;;;;;;27.13;7.00;;;0.20;99.90;;;;;;2084026;28;20047;-67
2021/03/22 03:30:42;;;;;;;21.77;6.22;;;0.20;99.90;;;;;;2087598;28;20017;-67
2021/03/22 03:31:42;;;;;;;29.95;7.03;;;0.20;99.90;;;;;;2082171;28;20417;-67
2021/03/22 03:32:43;;;;;;;21.83;6.60;;;0.20;99.90;;;;;;2088597;28;20025;-66
2021/03/22 03:33:45;;;;;;;19.27;7.22;;;0.20;99.90;;;;;;2088327;28;20044;-66
2021/03/22 03:34:46;;;;;;;30.95;7.50;;;0.20;99.90;;;;;;2088587;28;20128;-66
2021/03/22 03:35:47;;;;;;;21.13;7.80;;;0.20;99.90;;;;;;2087991;28;20595;-67
2021/03/22 03:36:48;;;;;;;16.60;6.53;;;0.20;99.90;;;;;;2084430;28;20036;-67
2021/03/22 03:37:49;;;;;;;22.15;6.80;;;0.20;99.90;;;;;;2087475;28;20071;-66
2021/03/22 03:38:49;;;;;;;13.43;6.65;;;0.20;99.90;;;;;;2086636;28;20025;-66
2021/03/22 03:39:50;;;;;;;20.35;6.30;;;0.20;99.90;;;;;;2083550;28;20030;-66
2021/03/22 03:40:51;;;;;;;19.13;5.88;;;0.20;99.90;;;;;;2086257;28;20025;-66
2021/03/22 03:41:52;;;;;;;20.52;6.88;;;0.20;99.90;;;;;;2086564;28;20021;-67
2021/03/22 03:42:53;;;;;;;19.27;6.82;;;0.20;99.90;;;;;;2087638;28;20103;-66
2021/03/22 03:43:53;;;;;;;17.60;6.38;;;0.10;99.90;;;;;;2087641;28;20432;-66
2021/03/22 03:44:54;;;;;;;17.90;5.60;;;0.10;99.90;;;;;;2088681;28;20017;-66
2021/03/22 03:45:55;;;;;;;24.02;6.18;;;0.10;99.90;;;;;;2088425;28;20017;-67
2021/03/22 03:46:55;;;;;;;16.67;6.45;;;0.10;99.90;;;;;;2085266;28;20025;-66
2021/03/22 03:47:56;;;;;;;25.98;7.20;;;0.10;99.90;;;;;;2085966;28;20104;-66
2021/03/22 03:48:57;;;;;;;18.75;6.20;;;0.00;99.90;;;;;;2084351;28;20432;-66
2021/03/22 03:49:57;;;;;;;22.65;6.03;;;0.00;99.90;;;;;;2086275;28;20362;-66
2021/03/22 03:51:01;;;;;;;23.92;6.70;;;0.00;99.90;;;;;;2086741;28;20067;-66
2021/03/22 03:52:04;;;;;;;22.95;6.40;;;0.00;99.90;;;;;;2081477;28;20482;-66
2021/03/22 03:53:05;;;;;;;24.25;6.65;;;0.00;99.90;;;;;;2089460;28;20025;-66
2021/03/22 03:54:07;;;;;;;20.75;6.85;;;-0.10;99.90;;;;;;2087587;28;20028;-67
2021/03/22 03:55:09;;;;;;;19.77;6.40;;;-0.10;99.90;;;;;;2089947;28;20172;-66
2021/03/22 03:56:09;;;;;;;13.48;6.25;;;-0.10;99.90;;;;;;2088858;28;20060;-66
2021/03/22 03:57:10;;;;;;;21.58;6.03;;;-0.10;99.90;;;;;;2080378;28;20021;-66
2021/03/22 03:58:11;;;;;;;12.40;5.97;;;-0.10;99.90;;;;;;2081247;28;20025;-66
2021/03/22 03:59:11;;;;;;;20.00;6.25;;;-0.20;99.90;;;;;;2084829;28;20029;-66
2021/03/22 04:00:16;;;;;;;12.85;5.55;;;-0.20;99.90;;;;;;2084536;28;20030;-66
2021/03/22 04:01:16;;;;;;;11.85;5.50;;;-0.20;99.90;;;;;;2087078;28;20611;-66
2021/03/22 04:02:17;;;;;;;21.20;6.15;;;-0.20;99.90;;;;;;2089327;28;20147;-66
2021/03/22 04:03:36;;;;;;;21.83;5.85;;;-0.20;99.90;;;;;;2088427;28;20116;-66
2021/03/22 04:04:37;;;;;;;15.40;5.25;;;-0.20;99.90;;;;;;2088279;28;20029;-66
2021/03/22 04:05:37;;;;;;;21.27;6.18;;;-0.10;99.90;;;;;;2080597;28;20017;-66
2021/03/22 04:06:38;;;;;;;15.10;6.22;;;-0.10;99.90;;;;;;2073125;28;20054;-67
2021/03/22 04:07:39;;;;;;;21.58;6.53;;;-0.10;99.90;;;;;;2084311;28;20104;-66
2021/03/22 04:08:46;;;;;;;19.55;6.43;;;-0.10;99.90;;;;;;2089402;28;20021;-66
2021/03/22 04:09:48;;;;;;;27.83;6.65;;;-0.10;99.90;;;;;;2087110;28;20036;-66
2021/03/22 04:10:50;;;;;;;;;;;-0.10;99.90;;;;;;2082801;28;20071;-66
2021/03/22 04:11:51;;;;;;;20.83;6.00;;;-0.10;99.90;;;;;;2085709;28;19906;-66
2021/03/22 04:12:51;;;;;;;24.05;6.53;;;-0.10;99.90;;;;;;2088029;28;20100;-66
2021/03/22 04:13:53;;;;;;;26.27;8.07;;;-0.10;99.90;;;;;;2087135;28;20029;-66
2021/03/22 04:14:54;;;;;;;27.55;7.22;;;0.00;99.90;;;;;;2087558;28;20021;-66
2021/03/22 04:15:55;;;;;;;19.10;6.10;;;0.00;99.90;;;;;;2082630;28;20038;-66
2021/03/22 04:16:56;;;;;;;27.63;6.95;;;0.00;99.90;;;;;;2089093;28;20037;-66
2021/03/22 04:17:57;;;;;;;20.52;7.38;;;0.00;99.90;;;;;;2089319;28;20472;-66
2021/03/22 04:18:57;;;;;;;19.88;7.18;;;0.10;99.90;;;;;;2090158;28;20032;-66
2021/03/22 04:19:58;;;;;;;21.20;7.10;;;0.10;99.90;;;;;;2087425;28;20484;-66
2021/03/22 04:20:59;;;;;;;20.77;7.85;;;0.10;99.90;;;;;;2093294;28;20026;-66
2021/03/22 04:21:59;;;;;;;19.98;6.70;;;0.10;99.90;;;;;;2090613;28;20075;-66
2021/03/22 04:23:00;;;;;;;21.17;7.03;;;0.10;99.90;;;;;;2086624;28;20017;-67
2021/03/22 04:24:03;;;;;;;29.42;6.50;;;0.10;99.90;;;;;;2088885;28;20040;-67
2021/03/22 04:25:04;;;;;;;28.30;7.50;;;0.10;99.90;;;;;;2089281;28;20017;-66
2021/03/22 04:26:06;;;;;;;32.60;7.38;;;0.10;99.90;;;;;;2087510;28;20025;-66
2021/03/22 04:27:07;;;;;;;18.02;6.85;;;0.20;99.90;;;;;;2088726;28;20055;-66
2021/03/22 04:28:08;;;;;;;20.95;7.45;;;0.20;99.90;;;;;;2081814;28;20474;-66
2021/03/22 04:29:10;;;;;;;30.00;8.45;;;0.20;99.90;;;;;;2085875;28;20120;-66
2021/03/22 04:30:11;;;;;;;46.83;13.43;;;0.20;99.90;;;;;;2084503;28;20064;-66
2021/03/22 04:31:16;;;;;;;33.13;10.87;;;0.10;99.90;;;;;;2081610;28;20037;-66
2021/03/22 04:32:17;;;;;;;17.00;7.40;;;0.10;99.90;;;;;;2087108;28;20342;-66
2021/03/22 04:33:17;;;;;;;14.52;6.57;;;0.10;99.90;;;;;;2089561;28;20028;-66
2021/03/22 04:34:18;;;;;;;17.25;6.97;;;0.10;99.90;;;;;;2089658;28;20071;-66
2021/03/22 04:35:23;;;;;;;18.98;6.47;;;0.10;99.90;;;;;;2083814;28;20033;-66
2021/03/22 04:36:28;;;;;;;16.05;6.70;;;0.00;99.90;;;;;;2085811;28;20032;-66
2021/03/22 04:37:29;;;;;;;16.65;6.43;;;0.00;99.90;;;;;;2086455;28;20028;-66
2021/03/22 04:38:30;;;;;;;18.85;6.30;;;0.00;99.90;;;;;;2082194;28;20021;-66
2021/03/22 04:39:31;;;;;;;20.80;7.05;;;0.00;99.90;;;;;;2089670;28;20017;-67
2021/03/22 04:40:31;;;;;;;15.45;6.50;;;-0.10;99.90;;;;;;2085661;28;20067;-66
2021/03/22 04:41:32;;;;;;;24.30;7.63;;;-0.10;99.90;;;;;;2087328;28;20033;-66
2021/03/22 04:42:33;;;;;;;15.95;5.95;;;-0.10;99.90;;;;;;2081096;28;20030;-67
2021/03/22 04:43:34;;;;;;;18.83;6.45;;;-0.10;99.90;;;;;;2084140;28;20097;-66
2021/03/22 04:44:35;;;;;;;27.08;6.85;;;-0.10;99.90;;;;;;2088631;28;20105;-66
2021/03/22 04:45:36;;;;;;;16.17;6.22;;;-0.10;99.90;;;;;;2085512;28;20017;-65
2021/03/22 04:46:36;;;;;;;26.17;7.07;;;-0.10;99.90;;;;;;2084639;28;20029;-66
2021/03/22 04:47:37;;;;;;;20.00;6.78;;;-0.20;99.90;;;;;;2084620;28;20100;-66
2021/03/22 04:48:37;;;;;;;21.77;6.45;;;-0.10;99.90;;;;;;2088595;28;20092;-66
2021/03/22 04:49:38;;;;;;;20.33;6.57;;;-0.10;99.90;;;;;;2088775;28;20040;-66
2021/03/22 04:50:39;;;;;;;20.33;6.55;;;-0.10;99.90;;;;;;2084057;28;20021;-67
2021/03/22 04:51:40;;;;;;;27.40;6.18;;;-0.10;99.90;;;;;;2082665;28;20026;-70
2021/03/22 04:52:40;;;;;;;21.58;6.25;;;-0.20;99.90;;;;;;2088476;28;20075;-66
2021/03/22 04:53:41;;;;;;;19.80;6.82;;;-0.20;99.90;;;;;;2089400;28;20016;-66
2021/03/22 04:54:42;;;;;;;20.88;6.70;;;-0.20;99.90;;;;;;2089483;28;20083;-66
2021/03/22 04:55:43;;;;;;;18.70;6.25;;;-0.20;99.90;;;;;;2086411;28;20072;-66
2021/03/22 04:56:43;;;;;;;21.45;6.65;;;-0.20;99.90;;;;;;2082167;28;20026;-66
2021/03/22 04:57:44;;;;;;;14.43;6.00;;;-0.20;99.90;;;;;;2080937;28;20375;-66
2021/03/22 04:58:45;;;;;;;27.02;6.63;;;-0.20;99.90;;;;;;2081726;28;20420;-67
2021/03/22 04:59:46;;;;;;;19.90;6.05;;;-0.20;99.90;;;;;;2089899;28;20056;-66
2021/03/22 05:00:47;;;;;;;26.58;6.68;;;-0.20;99.90;;;;;;2088991;28;20029;-66
2021/03/22 05:01:48;;;;;;;24.65;6.90;;;-0.20;99.90;;;;;;2088482;28;20068;-66
2021/03/22 05:02:49;;;;;;;21.60;6.47;;;-0.20;99.90;;;;;;2080147;28;20112;-66
2021/03/22 05:03:50;;;;;;;20.05;8.15;;;-0.20;99.90;;;;;;2079271;28;20057;-66
2021/03/22 05:04:50;;;;;;;25.67;7.55;;;-0.20;99.90;;;;;;2086898;28;20029;-66
2021/03/22 05:05:51;;;;;;;16.77;6.95;;;-0.20;99.90;;;;;;2086929;28;20022;-66
2021/03/22 05:06:52;;;;;;;24.70;6.40;;;-0.20;99.90;;;;;;2089089;28;20021;-66
2021/03/22 05:07:54;;;;;;;22.80;7.07;;;-0.20;99.90;;;;;;2089412;28;20464;-66
2021/03/22 05:08:56;;;;;;;;;;;-0.30;99.90;;;;;;2089973;28;20025;-66
2021/03/22 05:09:57;;;;;;;22.63;7.15;;;-0.20;99.90;;;;;;2088755;28;19905;-66
2021/03/22 05:11:00;;;;;;;26.63;6.93;;;-0.20;99.90;;;;;;2088758;28;20573;-66
2021/03/22 05:12:02;;;;;;;19.60;6.05;;;-0.20;99.90;;;;;;2087087;28;20060;-66
2021/03/22 05:13:03;;;;;;;;;;;-0.10;99.90;;;;;;2089636;28;20051;-66
2021/03/22 05:14:03;;;;;;;23.25;7.10;;;-0.10;99.90;;;;;;2086802;28;19909;-66
2021/03/22 05:15:05;;;;;;;21.55;7.13;;;-0.10;99.90;;;;;;2083746;28;20120;-66
2021/03/22 05:16:05;;;;;;;25.52;7.47;;;0.00;99.90;;;;;;2090466;28;20043;-66
2021/03/22 05:17:07;;;;;;;22.35;7.35;;;0.00;99.90;;;;;;2090035;28;20025;-66
2021/03/22 05:18:10;;;;;;;25.17;7.80;;;0.00;99.90;;;;;;2088635;28;20488;-66
2021/03/22 05:19:11;;;;;;;19.55;6.53;;;0.00;99.90;;;;;;2089214;28;20063;-66
2021/03/22 05:20:20;;;;;;;26.13;7.93;;;-0.10;99.90;;;;;;2086847;28;20086;-66
2021/03/22 05:21:21;;;;;;;22.20;7.28;;;-0.10;99.90;;;;;;2085733;28;20726;-66
2021/03/22 05:22:22;;;;;;;24.88;6.63;;;0.00;99.90;;;;;;2084255;28;20048;-66
2021/03/22 05:23:25;;;;;;;23.75;7.00;;;0.00;99.90;;;;;;2088780;28;20110;-66
2021/03/22 05:24:27;;;;;;;17.60;6.43;;;0.00;99.90;;;;;;2080887;28;20029;-66
2021/03/22 05:25:28;;;;;;;25.58;7.28;;;-0.10;99.90;;;;;;2082039;28;20477;-66
2021/03/22 05:26:28;;;;;;;28.77;7.47;;;-0.10;99.90;;;;;;2081166;28;20030;-66
2021/03/22 05:27:29;;;;;;;21.23;6.50;;;-0.10;99.90;;;;;;2088881;28;20029;-66
2021/03/22 05:28:31;;;;;;;23.13;7.07;;;-0.10;99.90;;;;;;2089068;28;20017;-66
2021/03/22 05:29:32;;;;;;;;;;;-0.10;99.90;;;;;;2083462;28;20079;-66